Time;durP1;ratioP1;P1;durP2;ratioP2;P2;SDS_P1;SDS_P2;PMS_P1;PMS_P2;Temp;Humidity;BMP_temperature;BMP_pressure;BME280_temperature;BME280_humidity;BME280_pressure;Samples;Min_cycle;Max_cycle;Signal;HPM_P1;HPM_P2
2020/12/07 00:02:22;;;;;;;79.45;39.30;;;3.80;99.90;;;;;;5046862;28;20029;-48
2020/12/07 00:04:47;;;;;;;77.47;41.33;;;3.90;99.90;;;;;;5047609;28;20529;-46
2020/12/07 00:07:13;;;;;;;78.28;39.28;;;3.90;99.90;;;;;;5049138;28;20360;-46
2020/12/07 00:09:38;;;;;;;79.70;40.53;;;3.90;99.90;;;;;;5049392;28;20107;-46
2020/12/07 00:12:04;;;;;;;84.50;42.72;;;3.90;99.90;;;;;;5048533;28;20024;-48
2020/12/07 00:14:29;;;;;;;88.10;42.13;;;3.90;99.90;;;;;;5048937;28;20029;-47
2020/12/07 00:16:55;;;;;;;76.22;40.28;;;3.90;99.90;;;;;;5049096;28;20036;-46
2020/12/07 00:19:20;;;;;;;78.45;40.50;;;3.90;99.90;;;;;;5048625;28;20029;-47
2020/12/07 00:21:46;;;;;;;78.03;40.53;;;3.90;99.90;;;;;;5048284;28;20036;-47
2020/12/07 00:24:11;;;;;;;84.05;40.20;;;3.90;99.90;;;;;;5049290;28;20033;-47
2020/12/07 00:26:37;;;;;;;83.50;42.83;;;3.90;99.90;;;;;;5049339;28;20029;-47
2020/12/07 00:29:03;;;;;;;75.13;39.40;;;3.90;99.90;;;;;;5048858;28;20032;-47
2020/12/07 00:31:29;;;;;;;75.80;39.95;;;3.90;99.90;;;;;;5048010;28;20036;-47
2020/12/07 00:33:58;;;;;;;69.60;37.85;;;3.90;99.90;;;;;;5034138;28;20030;-47
2020/12/07 00:36:25;;;;;;;83.00;41.65;;;3.90;99.90;;;;;;5048664;28;20096;-51
2020/12/07 00:38:53;;;;;;;65.45;35.30;;;3.90;99.90;;;;;;5047991;28;20049;-48
2020/12/07 00:41:22;;;;;;;69.60;37.42;;;3.90;99.90;;;;;;5048128;28;20271;-51
2020/12/07 00:43:48;;;;;;;69.53;36.88;;;3.90;99.90;;;;;;5048723;28;20052;-49
2020/12/07 00:46:15;;;;;;;65.65;35.33;;;3.90;99.90;;;;;;5048375;28;20466;-49
2020/12/07 00:48:40;;;;;;;65.00;36.65;;;3.90;99.90;;;;;;5046887;28;20033;-49
2020/12/07 00:51:06;;;;;;;67.47;37.05;;;3.80;99.90;;;;;;5047656;28;20391;-47
2020/12/07 00:53:32;;;;;;;63.33;33.45;;;3.90;99.90;;;;;;5048440;28;20374;-47
2020/12/07 00:55:57;;;;;;;61.45;34.42;;;3.90;99.90;;;;;;5045001;28;20040;-48
2020/12/07 00:58:23;;;;;;;62.53;34.35;;;3.90;99.90;;;;;;5036312;28;20039;-50
2020/12/07 01:00:48;;;;;;;58.05;34.15;;;3.80;99.90;;;;;;5047522;28;20035;-48
2020/12/07 01:03:14;;;;;;;60.22;33.78;;;3.80;99.90;;;;;;5046596;28;20029;-49
2020/12/07 01:05:39;;;;;;;61.70;34.03;;;3.80;99.90;;;;;;5048247;28;20032;-48
2020/12/07 01:08:05;;;;;;;63.22;33.78;;;3.80;99.90;;;;;;5046829;28;20379;-48
2020/12/07 01:10:30;;;;;;;59.40;32.85;;;3.80;99.90;;;;;;5047707;28;20102;-48
2020/12/07 01:12:56;;;;;;;61.95;33.22;;;3.80;99.90;;;;;;5048074;28;20036;-46
2020/12/07 01:15:21;;;;;;;58.15;31.95;;;3.80;99.90;;;;;;5048278;28;20032;-47
2020/12/07 01:17:47;;;;;;;57.88;33.15;;;3.80;99.90;;;;;;5047964;28;20108;-46
2020/12/07 01:20:12;;;;;;;63.67;33.90;;;3.80;99.90;;;;;;5047839;28;20025;-46
2020/12/07 01:22:38;;;;;;;58.28;33.90;;;3.80;99.90;;;;;;5047463;28;20026;-47
2020/12/07 01:25:03;;;;;;;60.63;32.53;;;3.80;99.90;;;;;;5047947;28;20025;-47
2020/12/07 01:27:29;;;;;;;61.38;32.45;;;3.80;99.90;;;;;;5048020;28;20045;-47
2020/12/07 01:29:54;;;;;;;55.85;32.35;;;3.70;99.90;;;;;;5047704;28;20033;-46
2020/12/07 01:32:20;;;;;;;60.13;33.55;;;3.80;99.90;;;;;;5043865;28;20029;-47
2020/12/07 01:34:45;;;;;;;55.15;32.13;;;3.80;99.90;;;;;;5037462;28;20060;-48
2020/12/07 01:37:11;;;;;;;56.78;30.80;;;3.80;99.90;;;;;;5047803;28;20063;-48
2020/12/07 01:39:36;;;;;;;58.40;32.97;;;3.80;99.90;;;;;;5047922;28;20135;-48
2020/12/07 01:42:02;;;;;;;57.97;32.78;;;3.80;99.90;;;;;;5047283;28;20021;-47
2020/12/07 01:44:27;;;;;;;55.55;28.98;;;3.80;99.90;;;;;;5047788;28;20040;-48
2020/12/07 01:46:53;;;;;;;58.45;32.90;;;3.80;99.90;;;;;;5047796;28;20575;-48
2020/12/07 01:49:18;;;;;;;62.70;33.35;;;3.80;99.90;;;;;;5047380;28;20103;-49
2020/12/07 01:51:44;;;;;;;56.50;33.85;;;3.80;99.90;;;;;;5049709;28;20056;-48
2020/12/07 01:54:09;;;;;;;58.22;33.60;;;3.80;99.90;;;;;;5051390;28;20474;-48
2020/12/07 01:56:38;;;;;;;59.22;33.28;;;3.80;99.90;;;;;;5050004;28;20454;-47
2020/12/07 01:59:04;;;;;;;63.67;35.22;;;3.80;99.90;;;;;;5051242;28;20024;-47
2020/12/07 02:01:29;;;;;;;57.47;33.22;;;3.90;99.90;;;;;;5050801;28;20083;-46
2020/12/07 02:03:55;;;;;;;57.28;32.67;;;3.90;99.90;;;;;;5051109;28;20033;-48
2020/12/07 02:06:20;;;;;;;60.22;35.00;;;3.90;99.90;;;;;;5051187;28;20021;-46
2020/12/07 02:08:49;;;;;;;56.80;33.38;;;3.90;99.90;;;;;;5051545;28;20029;-47
2020/12/07 02:11:16;;;;;;;52.20;30.98;;;3.90;99.90;;;;;;5050448;28;20033;-47
2020/12/07 02:13:41;;;;;;;57.38;34.33;;;3.90;99.90;;;;;;5051182;28;20075;-48
2020/12/07 02:16:07;;;;;;;59.97;33.72;;;3.90;99.90;;;;;;5051268;28;20294;-49
2020/12/07 02:18:32;;;;;;;54.67;31.85;;;3.90;99.90;;;;;;5049457;28;20252;-47
2020/12/07 02:20:58;;;;;;;54.53;31.98;;;3.90;99.90;;;;;;5050814;28;20035;-48
2020/12/07 02:23:23;;;;;;;58.65;33.97;;;3.90;99.90;;;;;;5051000;28;20024;-48
2020/12/07 02:25:49;;;;;;;59.30;33.22;;;3.90;99.90;;;;;;5051176;28;20334;-51
2020/12/07 02:28:14;;;;;;;55.92;32.80;;;3.90;99.90;;;;;;5051459;28;20382;-48
2020/12/07 02:30:40;;;;;;;51.65;31.38;;;3.90;99.90;;;;;;5050721;28;20032;-47
2020/12/07 02:33:05;;;;;;;51.35;29.70;;;3.90;99.90;;;;;;5041201;28;20033;-47
2020/12/07 02:35:30;;;;;;;53.22;31.10;;;3.90;99.90;;;;;;5043536;28;20367;-47
2020/12/07 02:37:56;;;;;;;55.70;32.85;;;3.90;99.90;;;;;;5051201;28;20071;-48
2020/12/07 02:40:22;;;;;;;51.10;30.45;;;3.90;99.90;;;;;;5050625;28;20521;-47
2020/12/07 02:42:47;;;;;;;53.92;31.67;;;3.90;99.90;;;;;;5050887;28;20712;-47
2020/12/07 02:45:14;;;;;;;48.42;30.23;;;3.90;99.90;;;;;;5050888;28;20036;-48
2020/12/07 02:47:41;;;;;;;53.47;29.88;;;3.90;99.90;;;;;;5050434;28;20025;-48
2020/12/07 02:50:08;;;;;;;51.13;29.92;;;4.00;99.90;;;;;;5050793;28;20017;-49
2020/12/07 02:52:34;;;;;;;48.88;29.38;;;3.90;99.90;;;;;;5049759;28;20482;-49
2020/12/07 02:55:07;;;;;;;50.95;28.92;;;4.00;99.90;;;;;;5050518;28;20053;-48
2020/12/07 02:57:32;;;;;;;44.15;26.80;;;4.00;99.90;;;;;;5050148;28;20060;-48
2020/12/07 02:59:58;;;;;;;56.08;31.05;;;4.00;99.90;;;;;;5050648;28;20482;-48
2020/12/07 03:02:23;;;;;;;49.13;29.02;;;4.00;99.90;;;;;;5049201;28;20474;-48
2020/12/07 03:04:49;;;;;;;45.40;28.13;;;4.10;99.90;;;;;;5050018;28;20079;-48
2020/12/07 03:07:15;;;;;;;52.60;29.33;;;4.10;99.90;;;;;;5048978;28;20040;-49
2020/12/07 03:09:40;;;;;;;52.22;31.05;;;4.10;99.90;;;;;;5050195;28;20025;-48
2020/12/07 03:12:07;;;;;;;51.35;30.63;;;4.10;99.90;;;;;;5049510;28;20417;-48
2020/12/07 03:14:33;;;;;;;51.92;30.35;;;4.10;99.90;;;;;;5050150;28;20490;-46
2020/12/07 03:16:58;;;;;;;47.85;28.88;;;4.10;99.90;;;;;;5050422;28;20017;-46
2020/12/07 03:19:24;;;;;;;52.47;30.50;;;4.10;99.90;;;;;;5049769;28;20029;-46
2020/12/07 03:21:49;;;;;;;46.80;28.30;;;4.10;99.90;;;;;;5049237;28;20036;-46
2020/12/07 03:24:15;;;;;;;48.47;28.20;;;4.20;99.90;;;;;;5049951;28;20099;-46
2020/12/07 03:26:40;;;;;;;45.70;27.92;;;4.20;99.90;;;;;;5048499;28;20033;-46
2020/12/07 03:29:06;;;;;;;44.22;27.77;;;4.20;99.90;;;;;;5050107;28;20025;-48
2020/12/07 03:31:33;;;;;;;44.97;28.85;;;4.20;99.90;;;;;;5047782;28;20136;-50
2020/12/07 03:34:00;;;;;;;50.15;29.58;;;4.10;99.90;;;;;;5035538;28;20386;-48
2020/12/07 03:36:26;;;;;;;44.05;27.95;;;4.20;99.90;;;;;;5049870;28;20017;-47
2020/12/07 03:38:52;;;;;;;45.38;27.70;;;4.10;99.90;;;;;;5049725;28;20168;-48
2020/12/07 03:41:18;;;;;;;45.55;27.88;;;4.20;99.90;;;;;;5048998;28;20035;-48
2020/12/07 03:43:44;;;;;;;43.65;28.10;;;4.20;99.90;;;;;;5049549;28;20393;-48
2020/12/07 03:46:09;;;;;;;46.75;28.48;;;4.20;99.90;;;;;;5049631;28;20107;-49
2020/12/07 03:48:35;;;;;;;43.83;27.95;;;4.20;99.90;;;;;;5049376;28;20090;-51
2020/12/07 03:51:00;;;;;;;46.90;28.75;;;4.20;99.90;;;;;;5048860;28;20433;-48
2020/12/07 03:53:30;;;;;;;43.47;26.38;;;4.20;99.90;;;;;;5048227;28;20023;-49
2020/12/07 03:55:56;;;;;;;42.70;28.77;;;4.20;99.90;;;;;;5049385;28;20490;-48
2020/12/07 03:58:21;;;;;;;47.35;28.38;;;4.20;99.90;;;;;;5049173;28;20021;-49
2020/12/07 04:00:47;;;;;;;43.55;25.95;;;4.20;99.90;;;;;;5048162;28;20491;-50
2020/12/07 04:03:13;;;;;;;46.30;29.17;;;4.20;99.90;;;;;;5048954;28;20021;-48
2020/12/07 04:05:40;;;;;;;43.13;27.10;;;4.30;99.90;;;;;;5049282;28;20025;-48
2020/12/07 04:08:06;;;;;;;48.42;28.38;;;4.30;99.90;;;;;;5048957;28;20009;-48
2020/12/07 04:10:32;;;;;;;46.25;27.00;;;4.30;99.90;;;;;;5048262;28;20071;-48
2020/12/07 04:12:57;;;;;;;43.67;26.42;;;4.30;99.90;;;;;;5048443;28;20026;-48
2020/12/07 04:15:23;;;;;;;46.83;28.58;;;4.30;99.90;;;;;;5048691;28;20025;-47
2020/12/07 04:17:48;;;;;;;42.15;27.13;;;4.30;99.90;;;;;;5048660;28;20025;-49
2020/12/07 04:20:14;;;;;;;44.42;28.02;;;4.40;99.90;;;;;;5048804;28;20021;-49
2020/12/07 04:22:39;;;;;;;47.10;27.30;;;4.40;99.90;;;;;;5048179;28;20473;-48
2020/12/07 04:25:05;;;;;;;44.42;27.80;;;4.40;99.90;;;;;;5048717;28;20025;-48
2020/12/07 04:27:30;;;;;;;44.95;27.00;;;4.40;99.90;;;;;;5048752;28;20477;-48
2020/12/07 04:29:56;;;;;;;40.30;26.02;;;4.40;99.90;;;;;;5048683;28;20032;-50
2020/12/07 04:32:21;;;;;;;44.47;27.88;;;4.50;99.90;;;;;;5044538;28;20580;-48
2020/12/07 04:34:46;;;;;;;47.88;28.30;;;4.50;99.90;;;;;;5037921;28;20117;-48
2020/12/07 04:37:12;;;;;;;43.90;27.60;;;4.50;99.90;;;;;;5048558;28;20029;-50
2020/12/07 04:39:38;;;;;;;40.30;26.23;;;4.50;99.90;;;;;;5047375;28;20112;-50
2020/12/07 04:42:03;;;;;;;43.20;26.52;;;4.50;99.90;;;;;;5048081;28;20061;-50
2020/12/07 04:44:29;;;;;;;44.72;27.00;;;4.50;99.90;;;;;;5048440;28;20037;-48
2020/12/07 04:46:56;;;;;;;45.17;27.73;;;4.60;99.90;;;;;;5048503;28;20025;-48
2020/12/07 04:49:23;;;;;;;46.95;27.38;;;4.50;99.90;;;;;;5048055;28;20024;-47
2020/12/07 04:51:50;;;;;;;42.03;27.48;;;4.60;99.90;;;;;;5047904;28;20485;-48
2020/12/07 04:54:16;;;;;;;40.47;25.98;;;4.60;99.90;;;;;;5046981;28;20025;-49
2020/12/07 04:56:42;;;;;;;42.65;26.42;;;4.60;99.90;;;;;;5048388;28;20033;-50
2020/12/07 04:59:09;;;;;;;47.13;28.77;;;4.60;99.90;;;;;;5048459;28;20078;-48
2020/12/07 05:01:36;;;;;;;41.67;25.98;;;4.60;99.90;;;;;;5047982;28;20436;-49
2020/12/07 05:04:01;;;;;;;41.55;26.17;;;4.60;99.90;;;;;;5048080;28;20112;-47
2020/12/07 05:06:29;;;;;;;43.85;27.45;;;4.60;99.90;;;;;;5048612;28;20112;-50
2020/12/07 05:08:56;;;;;;;42.15;25.95;;;4.60;99.90;;;;;;5048446;28;20021;-50
2020/12/07 05:11:21;;;;;;;48.80;28.17;;;4.60;99.90;;;;;;5046238;28;20029;-50
2020/12/07 05:13:52;;;;;;;43.15;27.73;;;4.70;99.90;;;;;;5048405;28;20037;-49
2020/12/07 05:16:17;;;;;;;45.95;26.27;;;4.70;99.90;;;;;;5048198;28;20025;-50
2020/12/07 05:18:43;;;;;;;45.63;27.67;;;4.70;99.90;;;;;;5048299;28;20151;-48
2020/12/07 05:21:09;;;;;;;51.78;28.70;;;4.70;99.90;;;;;;5047491;28;20116;-49
2020/12/07 05:23:40;;;;;;;45.97;28.20;;;4.80;99.90;;;;;;5047731;28;20021;-48
2020/12/07 05:26:09;;;;;;;51.83;31.25;;;4.90;99.90;;;;;;5031547;28;20013;-47
2020/12/07 05:28:41;;;;;;;55.65;32.33;;;5.00;99.90;;;;;;5032106;28;20032;-50
2020/12/07 05:31:06;;;;;;;55.58;33.70;;;5.30;99.90;;;;;;5031541;28;20013;-48
2020/12/07 05:33:32;;;;;;;47.00;31.60;;;5.60;99.90;;;;;;5031890;28;20036;-50
2020/12/07 05:35:58;;;;;;;43.25;28.55;;;6.00;99.90;;;;;;5051323;28;20021;-50
2020/12/07 05:38:33;;;;;;;42.20;27.77;;;6.30;99.90;;;;;;5043404;28;20025;-48
2020/12/07 05:41:02;;;;;;;39.47;26.30;;;6.40;99.90;;;;;;5030466;28;20472;-51
2020/12/07 05:43:29;;;;;;;46.30;26.92;;;6.50;99.90;;;;;;5031525;28;20118;-49
2020/12/07 05:45:58;;;;;;;37.50;25.48;;;6.70;99.90;;;;;;5031633;28;20025;-49
2020/12/07 05:48:29;;;;;;;39.20;25.75;;;6.80;99.90;;;;;;5031071;28;20455;-51
2020/12/07 05:50:55;;;;;;;34.88;23.75;;;6.90;99.90;;;;;;5030818;28;20467;-47
2020/12/07 05:53:23;;;;;;;40.20;25.63;;;7.00;99.90;;;;;;5029627;28;20061;-51
2020/12/07 05:55:48;;;;;;;36.40;22.50;;;7.00;99.90;;;;;;5031745;28;20021;-55
2020/12/07 05:58:20;;;;;;;34.47;23.55;;;7.10;99.90;;;;;;5030986;28;20376;-50
2020/12/07 06:00:47;;;;;;;35.45;23.40;;;7.20;99.90;;;;;;5028581;28;20029;-51
2020/12/07 06:03:17;;;;;;;31.58;20.70;;;7.20;99.90;;;;;;5030084;28;20033;-50
2020/12/07 06:05:45;;;;;;;36.55;21.95;;;7.30;99.90;;;;;;5031533;28;20056;-51
2020/12/07 06:08:18;;;;;;;30.33;20.63;;;7.40;99.90;;;;;;5032177;28;20043;-50
2020/12/07 06:10:51;;;;;;;30.48;20.80;;;7.40;99.90;;;;;;5030117;28;20075;-48
2020/12/07 06:13:23;;;;;;;31.95;19.60;;;7.50;99.90;;;;;;5030340;28;20056;-47
2020/12/07 06:15:51;;;;;;;29.42;20.65;;;7.60;99.90;;;;;;5037638;28;20032;-50
2020/12/07 06:18:27;;;;;;;33.60;19.73;;;7.70;99.90;;;;;;5029636;28;20109;-48
2020/12/07 06:20:54;;;;;;;29.52;18.45;;;7.70;99.90;;;;;;5032955;28;20029;-47
2020/12/07 06:23:29;;;;;;;31.75;20.10;;;7.80;99.90;;;;;;5031862;28;20107;-48
2020/12/07 06:25:57;;;;;;;25.55;18.52;;;7.80;99.90;;;;;;5031152;28;20399;-47
2020/12/07 06:28:27;;;;;;;28.95;19.80;;;7.90;99.90;;;;;;5031514;28;20025;-48
2020/12/07 06:30:52;;;;;;;27.90;18.87;;;7.90;99.90;;;;;;5031717;28;20017;-47
2020/12/07 06:33:20;;;;;;;27.48;19.30;;;8.00;99.90;;;;;;5031686;28;20836;-48
2020/12/07 06:35:46;;;;;;;29.95;19.35;;;8.00;99.90;;;;;;5032564;28;20036;-50
2020/12/07 06:38:12;;;;;;;30.40;20.15;;;8.00;99.90;;;;;;5033636;28;20109;-50
2020/12/07 06:40:39;;;;;;;25.33;18.63;;;8.00;99.90;;;;;;5031402;28;20045;-50
2020/12/07 06:43:25;;;;;;;28.98;19.27;;;8.00;99.90;;;;;;5031053;28;20026;-48
2020/12/07 06:45:51;;;;;;;31.08;20.33;;;8.10;99.90;;;;;;5030769;28;20510;-46
2020/12/07 06:48:20;;;;;;;29.00;19.67;;;8.00;99.90;;;;;;5032141;28;20020;-50
2020/12/07 06:50:47;;;;;;;27.80;19.88;;;8.00;99.90;;;;;;5030871;28;20010;-49
2020/12/07 06:55:55;;;;;;;27.90;19.13;;;8.00;99.90;;;;;;5031667;28;20083;-49
2020/12/07 06:58:31;;;;;;;32.30;20.17;;;8.10;99.90;;;;;;5031276;28;20034;-49
2020/12/07 07:01:09;;;;;;;27.77;19.10;;;8.10;99.90;;;;;;5030497;28;20025;-51
2020/12/07 07:03:34;;;;;;;32.28;21.88;;;8.10;99.90;;;;;;5031165;28;20032;-48
2020/12/07 07:06:10;;;;;;;35.08;21.67;;;8.10;99.90;;;;;;5031302;28;20014;-51
2020/12/07 07:08:37;;;;;;;35.22;21.65;;;8.00;99.90;;;;;;5031180;28;20035;-49
2020/12/07 07:11:08;;;;;;;33.35;20.70;;;8.00;99.90;;;;;;5030559;28;20146;-48
2020/12/07 07:13:34;;;;;;;35.90;22.75;;;8.00;99.90;;;;;;5031287;28;20783;-49
2020/12/07 07:16:00;;;;;;;36.15;22.48;;;8.00;99.90;;;;;;5031410;28;20117;-50
2020/12/07 07:18:26;;;;;;;36.78;23.23;;;8.10;99.90;;;;;;5031246;28;20017;-51
2020/12/07 07:20:51;;;;;;;34.58;23.55;;;8.10;99.90;;;;;;5031033;28;20041;-48
2020/12/07 07:23:17;;;;;;;47.15;26.17;;;8.10;99.90;;;;;;5031391;28;20042;-50
2020/12/07 07:25:52;;;;;;;38.67;25.90;;;8.10;99.90;;;;;;5031298;28;20095;-49
2020/12/07 07:28:18;;;;;;;38.53;24.23;;;8.00;99.90;;;;;;5031490;28;20109;-48
2020/12/07 07:30:44;;;;;;;36.50;24.70;;;8.00;99.90;;;;;;5030863;28;20096;-50
2020/12/07 07:33:10;;;;;;;37.58;24.30;;;7.90;99.90;;;;;;5031279;28;20029;-48
2020/12/07 07:35:37;;;;;;;35.67;24.88;;;7.90;99.90;;;;;;5047124;28;20033;-49
2020/12/07 07:38:03;;;;;;;39.75;26.05;;;7.90;99.90;;;;;;5051279;28;20063;-50
2020/12/07 07:40:30;;;;;;;37.47;25.10;;;7.90;99.90;;;;;;5050536;28;20056;-50
2020/12/07 07:43:02;;;;;;;44.03;26.17;;;7.90;99.90;;;;;;5051051;28;20455;-48
2020/12/07 07:45:36;;;;;;;36.85;25.08;;;7.90;99.90;;;;;;5051243;28;20025;-49
2020/12/07 07:48:24;;;;;;;34.83;23.77;;;7.90;99.90;;;;;;5051134;28;20016;-48
2020/12/07 07:51:11;;;;;;;38.00;25.65;;;7.80;99.90;;;;;;5050555;28;20028;-51
2020/12/07 08:13:09;;;;;;;45.72;29.15;;;7.80;99.90;;;;;;5030274;28;20095;-49
2020/12/07 08:15:52;;;;;;;;;;;7.80;99.90;;;;;;5040500;28;20496;-48
2020/12/07 08:18:38;;;;;;;45.92;28.40;;;7.80;99.90;;;;;;5030727;28;20035;-49
2020/12/07 08:21:05;;;;;;;48.50;30.02;;;7.80;99.90;;;;;;5029772;28;20033;-47
2020/12/07 08:23:34;;;;;;;53.90;30.60;;;7.90;99.90;;;;;;5029053;28;20032;-49
2020/12/07 08:26:04;;;;;;;48.88;31.30;;;7.80;99.90;;;;;;5030620;28;20462;-52
2020/12/07 08:28:34;;;;;;;45.22;29.33;;;7.80;99.90;;;;;;5029381;28;20446;-48
2020/12/07 08:31:17;;;;;;;52.90;29.43;;;7.80;99.90;;;;;;5028853;28;20052;-50
2020/12/07 08:33:54;;;;;;;52.40;32.00;;;7.80;99.90;;;;;;5028602;28;20025;-48
2020/12/07 08:36:19;;;;;;;55.10;32.42;;;7.70;99.90;;;;;;5028705;28;20072;-49
2020/12/07 08:38:45;;;;;;;52.85;31.83;;;7.70;99.90;;;;;;5027218;28;20065;-49
2020/12/07 08:41:19;;;;;;;52.50;34.28;;;7.60;99.90;;;;;;5027839;28;20021;-50
2020/12/07 08:43:53;;;;;;;53.58;33.78;;;7.60;99.90;;;;;;5029649;28;20029;-48
2020/12/07 08:46:24;;;;;;;58.33;35.40;;;7.60;99.90;;;;;;5028597;28;20109;-49
2020/12/07 08:48:51;;;;;;;55.50;34.03;;;7.50;99.90;;;;;;5028303;28;20028;-48
2020/12/07 08:51:23;;;;;;;45.90;29.45;;;7.40;99.90;;;;;;5027774;28;20463;-49
2020/12/07 08:53:49;;;;;;;39.05;24.90;;;7.30;99.90;;;;;;5029862;28;20025;-48
2020/12/07 08:56:15;;;;;;;45.47;26.33;;;7.20;99.90;;;;;;5029703;28;20176;-49
2020/12/07 08:58:42;;;;;;;42.50;25.33;;;7.10;99.90;;;;;;5038622;28;20030;-48
2020/12/07 09:01:09;;;;;;;35.97;23.63;;;7.10;99.90;;;;;;5027022;28;20029;-48
2020/12/07 09:03:36;;;;;;;40.08;24.98;;;7.10;99.90;;;;;;5027894;28;20045;-47
2020/12/07 09:06:09;;;;;;;42.88;25.08;;;7.00;99.90;;;;;;5028245;28;20021;-50
2020/12/07 09:08:35;;;;;;;43.25;24.85;;;7.00;99.90;;;;;;5028059;28;20018;-48
2020/12/07 09:11:05;;;;;;;37.35;24.20;;;6.90;99.90;;;;;;5027609;28;20509;-48
2020/12/07 09:13:31;;;;;;;38.47;23.77;;;6.90;99.90;;;;;;5028092;28;20040;-49
2020/12/07 09:15:56;;;;;;;36.92;21.55;;;6.90;99.90;;;;;;5028289;28;20033;-47
2020/12/07 09:18:22;;;;;;;33.38;19.33;;;6.80;99.90;;;;;;5028008;28;20033;-48
2020/12/07 09:20:48;;;;;;;32.75;19.95;;;6.80;99.90;;;;;;5027493;28;20391;-50
2020/12/07 09:23:14;;;;;;;34.05;18.50;;;6.80;99.90;;;;;;5028147;28;20021;-50
2020/12/07 09:25:40;;;;;;;28.05;17.20;;;6.70;99.90;;;;;;5028240;28;20029;-49
2020/12/07 09:28:05;;;;;;;25.98;15.70;;;6.70;99.90;;;;;;5026893;28;20383;-50
2020/12/07 09:30:32;;;;;;;26.27;14.95;;;6.70;99.90;;;;;;5027646;28;20026;-49
2020/12/07 09:32:57;;;;;;;24.83;16.52;;;6.60;99.90;;;;;;5026872;28;20080;-48
2020/12/07 09:35:23;;;;;;;25.85;15.60;;;6.70;99.90;;;;;;5041529;28;20025;-51
2020/12/07 09:37:48;;;;;;;24.25;15.10;;;6.70;99.90;;;;;;5042748;28;20029;-51
2020/12/07 09:40:14;;;;;;;27.70;15.57;;;6.60;99.90;;;;;;5042343;28;20057;-49
2020/12/07 09:42:40;;;;;;;25.10;15.57;;;6.70;99.90;;;;;;5035461;28;20677;-47
2020/12/07 09:45:07;;;;;;;21.67;14.05;;;6.70;99.90;;;;;;5035752;28;20030;-47
2020/12/07 09:47:33;;;;;;;21.33;13.27;;;6.70;99.90;;;;;;5027606;28;20022;-47
2020/12/07 09:49:59;;;;;;;21.83;13.45;;;6.60;99.90;;;;;;5038494;28;20024;-47
2020/12/07 09:52:24;;;;;;;20.20;13.35;;;6.60;99.90;;;;;;5027063;28;20107;-47
2020/12/07 09:54:50;;;;;;;20.00;12.85;;;6.60;99.90;;;;;;5027551;28;20041;-47
2020/12/07 09:57:15;;;;;;;20.60;13.10;;;6.60;99.90;;;;;;5027383;28;20034;-47
2020/12/07 09:59:41;;;;;;;19.10;12.70;;;6.50;99.90;;;;;;5028302;28;20044;-48
2020/12/07 10:02:07;;;;;;;18.67;11.85;;;6.60;99.90;;;;;;5027754;28;20220;-46
2020/12/07 10:04:33;;;;;;;19.23;11.27;;;6.60;99.90;;;;;;5028030;28;20022;-48
2020/12/07 10:06:58;;;;;;;15.10;10.48;;;6.70;99.90;;;;;;5028329;28;20480;-46
2020/12/07 10:09:24;;;;;;;19.92;11.57;;;6.70;99.90;;;;;;5029514;28;20014;-48
2020/12/07 10:11:49;;;;;;;18.15;9.52;;;6.80;99.90;;;;;;5029010;28;20484;-50
2020/12/07 10:14:15;;;;;;;13.38;9.63;;;6.80;99.90;;;;;;5032002;28;20463;-49
2020/12/07 10:16:44;;;;;;;13.70;9.13;;;6.90;99.90;;;;;;5033126;28;20021;-48
2020/12/07 10:19:11;;;;;;;14.20;8.95;;;7.00;99.90;;;;;;5033264;28;20026;-47
2020/12/07 10:21:37;;;;;;;11.43;7.25;;;7.10;99.90;;;;;;5030788;28;20025;-48
2020/12/07 10:24:03;;;;;;;11.70;8.30;;;7.10;99.90;;;;;;5031528;28;20430;-49
2020/12/07 10:26:28;;;;;;;9.35;6.55;;;7.20;99.90;;;;;;5031358;28;20033;-51
2020/12/07 10:28:55;;;;;;;11.00;7.28;;;7.40;99.90;;;;;;5031734;28;20026;-48
2020/12/07 10:31:21;;;;;;;7.57;4.75;;;7.40;99.90;;;;;;5030781;28;20013;-46
2020/12/07 10:33:47;;;;;;;9.07;5.00;;;7.40;99.90;;;;;;5034178;28;20025;-47
2020/12/07 10:36:13;;;;;;;8.27;4.78;;;7.40;99.90;;;;;;5031161;28;20021;-48
2020/12/07 10:38:39;;;;;;;5.68;4.03;;;7.30;99.90;;;;;;5030010;28;20037;-48
2020/12/07 10:41:05;;;;;;;6.13;4.90;;;7.30;99.90;;;;;;5030727;28;20026;-47
2020/12/07 10:43:31;;;;;;;5.70;4.53;;;7.40;99.90;;;;;;5036888;28;20403;-49
2020/12/07 10:45:56;;;;;;;6.07;4.38;;;7.30;99.90;;;;;;5030353;28;20091;-48
2020/12/07 10:48:22;;;;;;;6.53;4.18;;;7.30;99.90;;;;;;5036440;28;20025;-48
2020/12/07 10:50:48;;;;;;;4.45;3.95;;;7.30;99.90;;;;;;5033125;28;20022;-48
2020/12/07 10:53:13;;;;;;;5.78;4.45;;;7.30;99.90;;;;;;5031262;28;20037;-48
2020/12/07 10:55:40;;;;;;;5.50;3.88;;;7.40;99.90;;;;;;5032715;28;20033;-48
2020/12/07 10:58:06;;;;;;;5.18;3.90;;;7.40;99.90;;;;;;5030831;28;20026;-46
2020/12/07 11:00:31;;;;;;;4.68;3.30;;;7.50;99.90;;;;;;5029178;28;20084;-48
2020/12/07 11:02:57;;;;;;;3.88;3.00;;;7.20;99.90;;;;;;5029812;28;20021;-47
2020/12/07 11:05:22;;;;;;;3.20;2.90;;;7.30;99.90;;;;;;5029383;28;20585;-47
2020/12/07 11:07:50;;;;;;;4.70;3.30;;;7.20;99.90;;;;;;5031525;28;20101;-48
2020/12/07 11:10:16;;;;;;;4.35;3.30;;;7.10;99.90;;;;;;5032111;28;20059;-49
2020/12/07 11:12:44;;;;;;;4.03;3.28;;;7.00;99.90;;;;;;5031449;28;20026;-49
2020/12/07 11:15:10;;;;;;;3.90;3.00;;;6.90;99.90;;;;;;5031851;28;20111;-50
2020/12/07 11:17:35;;;;;;;3.67;2.88;;;6.90;99.90;;;;;;5030725;28;20466;-51
2020/12/07 11:20:01;;;;;;;3.05;2.67;;;7.00;99.90;;;;;;5029972;28;20040;-48
2020/12/07 11:22:26;;;;;;;3.15;2.85;;;7.20;99.90;;;;;;5030658;28;20538;-51
2020/12/07 11:24:52;;;;;;;4.00;2.70;;;7.20;99.90;;;;;;5031456;28;20071;-46
2020/12/07 11:27:17;;;;;;;3.50;2.90;;;7.20;99.90;;;;;;5031513;28;20020;-47
2020/12/07 11:29:43;;;;;;;3.08;2.75;;;7.30;99.90;;;;;;5031513;28;20468;-48
2020/12/07 11:32:08;;;;;;;3.45;2.75;;;7.20;99.90;;;;;;5030489;28;20060;-47
2020/12/07 11:34:34;;;;;;;3.83;2.75;;;7.20;99.90;;;;;;5038872;28;20040;-49
2020/12/07 11:36:59;;;;;;;2.78;2.47;;;7.20;99.90;;;;;;5051330;28;20035;-48
2020/12/07 11:39:39;;;;;;;3.58;2.88;;;7.20;99.90;;;;;;5050995;28;20032;-47
2020/12/07 11:42:18;;;;;;;3.40;3.00;;;7.10;99.90;;;;;;5050707;28;20021;-50
2020/12/07 11:44:48;;;;;;;3.03;2.63;;;7.00;99.90;;;;;;5038406;28;20029;-48
2020/12/07 11:47:14;;;;;;;4.15;3.22;;;7.00;99.90;;;;;;5050984;28;20036;-50
2020/12/07 11:49:41;;;;;;;3.55;2.92;;;6.80;99.90;;;;;;5043215;28;20129;-48
2020/12/07 11:52:07;;;;;;;3.58;2.92;;;6.90;99.90;;;;;;5032881;28;20501;-50
2020/12/07 11:54:33;;;;;;;3.72;2.70;;;7.00;99.90;;;;;;5029189;28;20128;-51
2020/12/07 11:57:03;;;;;;;4.60;3.55;;;7.00;99.90;;;;;;5029651;28;20037;-47
2020/12/07 11:59:29;;;;;;;5.47;2.70;;;7.00;99.90;;;;;;5029585;28;20092;-47
2020/12/07 12:01:54;;;;;;;3.28;2.90;;;7.10;99.90;;;;;;5029088;28;20060;-47
2020/12/07 12:04:20;;;;;;;3.05;2.70;;;6.90;99.90;;;;;;5029100;28;20034;-47
2020/12/07 12:06:45;;;;;;;3.65;3.10;;;6.80;99.90;;;;;;5029793;28;20029;-47
2020/12/07 12:09:14;;;;;;;3.83;3.10;;;6.70;99.90;;;;;;5029516;28;20022;-49
2020/12/07 12:11:40;;;;;;;3.70;3.00;;;6.70;99.90;;;;;;5029339;28;20020;-48
2020/12/07 12:14:08;;;;;;;3.90;3.15;;;6.70;99.90;;;;;;5029191;28;20045;-51
2020/12/07 12:16:34;;;;;;;3.83;3.15;;;6.60;99.90;;;;;;5029073;28;20025;-49
2020/12/07 12:19:00;;;;;;;3.70;3.40;;;6.60;99.90;;;;;;5030436;28;20502;-49
2020/12/07 12:21:29;;;;;;;3.20;2.90;;;6.50;99.90;;;;;;5029458;28;20512;-48
2020/12/07 12:23:55;;;;;;;4.50;3.58;;;6.70;99.90;;;;;;5030145;28;20502;-49
2020/12/07 12:26:21;;;;;;;4.43;3.08;;;6.60;99.90;;;;;;5026251;28;20025;-47
2020/12/07 12:28:48;;;;;;;4.85;3.83;;;6.70;99.90;;;;;;5029006;28;20086;-48
2020/12/07 12:31:13;;;;;;;5.65;3.58;;;6.70;99.90;;;;;;5028030;28;20045;-48
2020/12/07 12:33:42;;;;;;;4.18;3.50;;;6.70;99.90;;;;;;5029202;28;20068;-48
2020/12/07 12:36:11;;;;;;;4.20;3.67;;;6.80;99.90;;;;;;5029866;28;20018;-49
2020/12/07 12:38:36;;;;;;;3.92;3.28;;;6.80;99.90;;;;;;5030614;28;20549;-48
2020/12/07 12:41:02;;;;;;;3.95;3.28;;;6.80;99.90;;;;;;5029764;28;20021;-52
2020/12/07 12:43:27;;;;;;;3.95;3.55;;;6.80;99.90;;;;;;5029005;28;20498;-48
2020/12/07 12:45:53;;;;;;;3.95;3.10;;;6.80;99.90;;;;;;5030146;28;20025;-47
2020/12/07 12:48:18;;;;;;;7.13;3.60;;;6.80;99.90;;;;;;5029942;28;20052;-49
2020/12/07 12:50:44;;;;;;;3.53;3.13;;;6.90;99.90;;;;;;5027759;28;20049;-51
2020/12/07 12:53:09;;;;;;;4.97;3.00;;;6.90;99.90;;;;;;5030048;28;20030;-50
2020/12/07 12:55:36;;;;;;;3.15;2.72;;;7.00;99.90;;;;;;5029847;28;20057;-47
2020/12/07 12:58:01;;;;;;;3.55;2.80;;;6.90;99.90;;;;;;5028401;28;20025;-49
2020/12/07 13:00:27;;;;;;;3.22;2.90;;;6.90;99.90;;;;;;5029533;28;20075;-49
2020/12/07 13:02:52;;;;;;;2.17;1.98;;;7.00;99.90;;;;;;5029788;28;20064;-47